Historical Weather Data
Okotoks
Hwy 2A and Milligan Dr

Date
ET inches
Rain inches
Temperature °C
Humidity
Avg
Wind kmh
Avg
Solar Wm2
Avg
High
Avg
Low
01/01/2022 0.00 0.00 -3.9 -17.6 -29.9 69 0.0 40
01/02/2022 0.01 0.00 2.1 -4.3 -15.1 55 0.0 56
01/03/2022 0.00 0.00 -15.0 -20.8 -25.5 83 0.0 22
01/04/2022 0.00 0.00 -23.1 -26.7 -31.4 69 0.0 62
01/05/2022 0.00 0.00 -22.7 -28.4 -34.9 73 0.0 40
01/06/2022 0.00 0.00 -23.4 -28.3 -36.0 76 0.0 35
01/07/2022 0.00 0.00 -21.3 -23.8 -26.9 78 0.0 37
01/08/2022 0.00 0.00 -16.2 -23.0 -28.6 72 0.0 37
01/09/2022 0.01 0.00 -4.3 -16.2 -25.1 73 0.0 53
01/10/2022 0.01 0.00 9.3 0.2 -5.7 52 0.0 35
01/11/2022 0.02 0.00 9.1 2.2 -6.6 51 0.0 53
01/12/2022 0.01 0.00 6.6 1.4 -3.1 64 0.0 19
01/13/2022 0.01 0.00 5.7 -0.7 -6.6 83 0.0 39
01/14/2022 0.01 0.00 1.3 -0.7 -3.4 83 0.0 52
01/15/2022 0.01 0.00 7.5 1.3 -5.6 57 0.0 47
01/16/2022 0.01 0.00 2.8 -2.9 -9.8 69 0.0 57
01/17/2022 0.02 0.00 13.3 1.2 -11.1 62 0.0 72
01/18/2022 0.00 0.00 -11.0 -17.5 -25.9 76 0.0 44
01/19/2022 0.01 0.00 -14.1 -21.8 -28.7 79 0.0 77
01/20/2022 0.01 0.00 9.0 -1.0 -17.7 62 0.0 44
01/21/2022 0.01 0.00 5.1 -0.5 -8.0 68 0.0 62
01/22/2022 0.02 0.00 11.0 2.9 -3.9 58 0.0 69
01/23/2022 0.02 0.00 11.3 4.2 -4.8 43 0.0 60
01/24/2022 0.01 0.00 1.8 -1.1 -5.4 76 0.0 39
01/25/2022 0.02 0.00 6.6 -2.1 -11.1 64 0.0 57
01/26/2022 0.02 0.00 4.1 -1.7 -8.4 53 0.0 45
01/27/2022 0.02 0.00 5.8 -5.4 -13.3 61 0.0 80
01/28/2022 0.02 0.00 7.7 -0.1 -6.9 38 0.0 56
01/29/2022 0.02 0.00 6.0 0.1 -5.8 42 0.0 49
01/30/2022 0.02 0.00 9.2 1.2 -3.6 55 0.0 50
01/31/2022 0.01 0.00 2.5 -7.7 -16.8 64 0.0 40
02/01/2022 0.01 0.00 -16.6 -19.5 -24.3 79 0.0 64
02/02/2022 0.01 0.00 -18.5 -24.3 -31.8 76 0.0 74
02/03/2022 0.01 0.00 -10.1 -15.5 -22.0 77 0.0 85
02/04/2022 0.02 0.00 6.9 -6.4 -19.5 67 0.0 34
02/05/2022 0.03 0.00 6.5 1.2 -8.8 51 0.0 59
02/06/2022 0.03 0.00 11.4 3.4 -9.3 45 0.0 77
02/07/2022 0.03 0.00 9.1 5.5 -0.7 33 0.0 100
02/08/2022 0.02 0.00 9.3 1.8 -4.4 48 0.0 53
02/09/2022 0.04 0.00 13.6 5.4 -3.7 51 0.0 99
02/10/2022 0.03 0.00 13.3 7.7 -0.5 39 0.0 76
02/11/2022 0.03 0.00 2.9 -1.6 -8.4 57 0.0 110
02/12/2022 0.03 0.00 7.0 -0.4 -7.6 49 0.0 105
02/13/2022 0.03 0.00 9.4 2.6 -2.0 51 0.0 100
02/14/2022 0.01 0.00 -1.6 -3.0 -4.5 87 0.0 38
02/15/2022 0.03 0.00 0.7 -3.1 -8.0 82 0.0 83
02/16/2022 0.02 0.00 -2.9 -9.1 -18.8 83 0.0 92
02/17/2022 0.03 0.00 8.2 -1.1 -13.6 66 0.0 82
02/18/2022 0.01 0.00 -1.0 -7.1 -10.0 93 0.0 43
02/19/2022 0.03 0.00 7.9 1.1 -9.1 73 0.0 48
02/20/2022 0.01 0.00 -7.2 -16.2 -20.6 80 0.0 104
02/21/2022 0.01 0.00 -18.3 -21.9 -29.2 77 0.0 137
02/22/2022 0.02 0.00 -12.6 -25.9 -32.5 68 0.0 139
02/23/2022 0.02 0.00 -12.0 -22.4 -34.0 66 0.0 148
02/24/2022 0.02 0.00 -5.2 -8.3 -12.4 83 0.0 116
02/25/2022 0.04 0.00 5.1 -9.5 -19.0 65 0.0 139
02/26/2022 0.04 0.00 7.6 -2.8 -13.4 53 0.0 115
02/27/2022 0.05 0.00 9.2 2.4 -2.6 48 0.0 114
02/28/2022 0.03 0.00 8.5 -1.1 -7.1 68 0.0 93
03/01/2022 0.05 0.00 12.0 -0.4 -8.3 81 0.0 130
03/02/2022 0.01 0.00 -5.5 -6.7 -7.6 97 0.0 33
03/03/2022 0.01 0.00 -5.1 -7.8 -9.3 96 0.0 37
03/04/2022 0.01 0.00 -4.3 -8.3 -10.0 90 0.0 43
03/05/2022 0.03 0.00 3.0 -6.7 -13.1 83 0.0 92
03/06/2022 0.04 0.00 3.0 -5.6 -10.4 76 0.0 163
03/07/2022 0.03 0.00 3.7 -2.0 -8.3 60 0.0 105
03/08/2022 0.03 0.00 -7.1 -10.3 -15.5 67 0.0 132
03/09/2022 0.03 0.00 -7.9 -14.7 -20.3 70 0.0 168
03/10/2022 0.04 0.00 -3.6 -10.3 -17.6 57 0.0 162
03/11/2022 0.03 0.00 -0.2 -9.8 -19.4 76 0.0 146
03/12/2022 0.07 0.00 12.3 1.7 -6.5 54 0.0 177
03/13/2022 0.05 0.00 4.1 -0.5 -3.5 77 0.0 149
03/14/2022 0.06 0.00 10.8 2.8 -4.1 70 0.0 146
03/15/2022 0.06 0.00 10.9 4.2 -0.8 59 0.0 143
03/16/2022 0.07 0.00 8.7 2.2 -3.6 49 0.0 168
03/17/2022 0.07 0.00 12.6 2.0 -6.7 52 0.0 163
03/18/2022 0.06 0.00 10.3 2.9 -4.3 51 0.0 165
03/19/2022 0.07 0.00 12.0 2.9 -4.5 53 0.0 168
03/20/2022 0.05 0.00 7.2 0.4 -5.9 62 0.0 137
03/21/2022 0.08 0.00 10.5 0.7 -8.9 50 0.0 199
03/22/2022 0.08 0.00 15.7 4.9 -4.4 49 0.0 176
03/23/2022 0.04 0.00 18.7 6.8 -1.5 53 0.0 78
03/24/2022 0.06 0.00 7.0 0.4 -5.5 66 0.0 168
03/25/2022 0.05 0.00 9.1 0.1 -7.0 66 0.0 140
03/26/2022 0.05 0.00 7.2 -0.2 -7.0 66 0.0 134
03/27/2022 0.08 0.00 15.0 4.8 -5.0 57 0.0 179
03/28/2022 0.05 0.00 4.7 0.3 -2.7 78 0.0 154
03/29/2022 0.08 0.00 11.4 1.5 -7.0 63 0.0 220
03/30/2022 0.08 0.00 17.3 4.8 -6.5 52 0.0 166
03/31/2022 0.06 0.00 8.1 2.9 -2.5 47 0.0 138
04/01/2022 0.09 0.00 10.6 2.0 -6.1 46 0.0 215
04/02/2022 0.05 0.00 11.2 1.5 -5.4 61 0.0 109
04/03/2022 0.04 0.00 10.1 -0.4 -9.6 65 0.0 81
04/04/2022 0.09 0.00 13.5 5.9 -1.2 37 0.0 177
04/05/2022 0.11 0.00 10.9 5.1 -2.8 24 0.0 241
04/06/2022 0.09 0.00 10.2 1.1 -8.3 41 0.0 205
04/07/2022 0.11 0.00 17.6 4.8 -9.0 42 0.0 237
04/08/2022 0.12 0.00 21.3 11.8 2.5 31 0.0 215
04/09/2022 0.05 0.00 8.4 2.0 -4.0 57 0.0 120
04/10/2022 0.07 0.00 3.2 -1.6 -6.9 41 0.0 182
04/11/2022 0.07 0.00 -0.5 -5.6 -10.9 44 0.0 235
04/12/2022 0.04 0.00 -7.7 -9.6 -11.6 76 0.0 192
04/13/2022 0.05 0.00 -6.0 -9.4 -11.5 78 0.0 212
04/14/2022 0.04 0.00 -5.8 -8.8 -12.1 82 0.0 188
04/15/2022 0.07 0.00 2.5 -6.3 -12.1 71 0.0 238
04/16/2022 0.08 0.00 5.1 -4.5 -15.1 64 0.0 252
04/17/2022 0.08 0.00 6.2 -1.9 -9.2 64 0.0 217
04/18/2022 0.09 0.00 9.0 1.1 -9.9 51 0.0 215
04/19/2022 0.02 0.00 4.8 0.5 -2.1 75 0.0 49
04/20/2022 0.07 0.00 4.8 -0.7 -3.5 69 0.0 203
04/21/2022 0.09 0.00 9.8 1.7 -6.4 64 0.0 246
04/22/2022 0.03 0.00 4.2 1.1 -1.2 85 0.0 90
04/23/2022 0.12 0.00 11.9 4.5 -4.6 59 0.0 278
04/24/2022 0.13 0.00 17.0 7.0 -4.5 43 0.0 275
04/25/2022 0.10 0.00 16.7 7.8 -3.7 40 0.0 201
04/26/2022 0.08 0.00 15.4 9.5 3.0 45 0.0 141
04/27/2022 0.12 0.06 10.7 5.0 -3.5 46 5.2 213
04/28/2022 0.14 0.00 12.9 3.9 -7.9 37 7.5 273
04/29/2022 0.14 0.00 14.1 5.8 -1.5 39 8.2 258
04/30/2022 0.13 0.00 13.1 5.5 -6.1 55 7.5 228
05/01/2022 0.13 0.00 14.1 8.5 0.8 51 11.0 192
05/02/2022 0.14 0.00 17.4 9.0 -2.7 46 5.5 227
05/03/2022 0.16 0.00 19.1 9.9 -0.1 50 7.2 244
05/04/2022 0.09 0.00 20.5 10.4 2.3 45 6.4 91
05/05/2022 0.14 0.00 19.7 13.3 8.0 44 15.0 113
05/06/2022 0.22 0.00 16.8 11.1 2.7 31 13.5 304
05/07/2022 0.13 0.30 14.2 6.4 -2.0 52 8.7 226
05/08/2022 0.10 0.02 11.2 3.8 -1.4 77 10.3 237
05/09/2022 0.10 0.21 7.2 2.4 -1.2 81 6.6 261
05/10/2022 0.08 0.01 12.7 3.7 -0.6 80 7.4 187
05/11/2022 0.13 0.00 14.9 5.9 -4.0 54 4.7 245
05/12/2022 0.18 0.00 16.1 7.1 -4.0 42 10.9 280
05/13/2022 0.12 0.00 14.4 5.6 -4.3 54 8.5 215
05/14/2022 0.19 0.00 16.7 8.6 -1.8 37 9.8 319
05/15/2022 0.19 0.00 20.0 10.7 -1.7 40 8.0 312
05/16/2022 0.20 0.00 21.6 12.8 1.4 44 9.5 286
05/17/2022 0.11 0.10 14.5 8.1 2.2 64 11.9 173
05/18/2022 0.17 0.01 15.7 6.4 -1.9 60 15.0 297
05/19/2022 0.07 0.19 8.4 3.8 0.0 74 22.7 123
05/20/2022 0.10 0.06 7.8 3.8 0.7 69 17.8 192
05/21/2022 0.11 0.00 11.3 4.7 -1.5 50 6.9 214
05/22/2022 0.17 0.00 16.9 7.1 -5.2 45 6.9 311
05/23/2022 0.18 0.00 19.5 10.4 -1.5 36 6.2 282
05/24/2022 0.18 0.03 18.5 11.2 3.6 42 11.6 256
05/25/2022 0.19 0.00 20.0 11.7 3.0 43 8.8 266
05/26/2022 0.19 0.00 20.2 11.5 -0.7 41 6.6 305
05/27/2022 0.19 0.00 21.1 14.2 6.9 42 10.8 240
05/28/2022 0.21 0.00 20.3 13.3 5.0 32 8.2 310
05/29/2022 0.16 0.00 15.0 11.1 6.8 41 16.3 178
05/30/2022 0.12 0.00 15.1 9.2 4.6 57 18.5 157
05/31/2022 0.15 0.00 17.3 9.1 -2.4 46 5.3 276
06/01/2022 0.16 0.00 19.9 11.3 2.4 43 6.1 248
06/02/2022 0.21 0.00 20.7 11.6 -0.7 44 9.3 293
06/03/2022 0.23 0.00 21.3 13.0 0.5 38 11.5 287
06/04/2022 0.13 0.01 21.4 13.3 5.2 64 7.3 172
06/05/2022 0.07 0.28 18.0 11.4 8.0 90 7.8 134
06/06/2022 0.08 0.47 17.5 10.5 8.7 89 7.8 135
06/07/2022 0.13 0.28 18.5 11.5 7.8 73 11.1 217
06/08/2022 0.18 0.00 21.1 13.0 4.5 58 9.3 264
06/09/2022 0.23 0.00 22.5 15.3 6.6 43 10.7 308
06/10/2022 0.26 0.00 23.8 17.2 7.6 39 9.0 364
06/11/2022 0.19 0.03 22.3 15.0 7.7 50 7.0 285
06/12/2022 0.16 0.02 20.8 12.0 4.4 63 7.2 252
06/13/2022 0.03 1.71 11.8 9.1 8.1 93 11.8 43
06/14/2022 0.07 1.29 11.8 8.6 6.4 86 30.9 143
06/15/2022 0.16 0.00 15.6 12.2 8.2 64 31.0 218
06/16/2022 0.15 0.18 18.4 12.9 5.9 69 9.7 215
06/17/2022 0.13 0.10 20.6 15.2 11.0 79 6.7 225
06/18/2022 0.16 0.23 23.4 15.4 10.3 80 6.2 269
06/19/2022 0.14 0.02 20.9 13.3 8.9 76 8.7 221
06/20/2022 0.12 0.01 18.4 12.6 6.2 72 12.3 192
06/21/2022 0.20 0.00 23.4 15.0 4.9 57 6.4 311
06/22/2022 0.24 0.04 24.1 16.5 9.9 55 9.8 347
06/23/2022 0.12 0.09 15.1 10.8 3.7 70 10.7 221
06/24/2022 0.11 0.17 13.8 9.0 4.1 70 17.5 210
06/25/2022 0.21 0.00 19.4 12.6 3.5 56 7.9 361
06/26/2022 0.23 0.00 24.1 15.1 3.2 50 5.0 366
06/27/2022 0.23 0.00 25.3 16.5 5.4 56 7.8 350
06/28/2022 0.18 0.14 22.8 15.6 7.2 75 9.9 284
06/29/2022 0.16 0.05 19.7 13.7 8.8 69 8.2 260
06/30/2022 0.17 0.03 22.4 15.2 8.5 61 5.1 296
07/01/2022 0.14 0.30 23.7 14.9 8.7 69 4.9 227
07/02/2022 0.08 0.36 17.7 12.6 7.2 85 6.1 142
07/03/2022 0.05 0.10 13.0 10.9 9.4 88 2.6 77
07/04/2022 0.05 0.38 15.1 11.5 9.8 95 4.6 94
07/05/2022 0.21 0.01 22.6 14.3 6.3 70 5.1 344
07/06/2022 0.11 0.00 18.6 12.6 4.8 86 5.1 208
07/07/2022 0.19 0.05 25.5 17.6 9.7 78 8.0 302
07/08/2022 0.22 0.01 27.4 18.6 7.8 54 4.8 336
07/09/2022 0.24 0.00 26.5 17.5 7.1 51 7.5 349
07/10/2022 0.20 0.02 23.9 16.7 8.3 50 6.7 294
07/11/2022 0.25 0.00 25.0 17.4 6.9 53 8.2 348
07/12/2022 0.29 0.00 29.5 20.4 8.3 48 10.8 352
07/13/2022 0.19 0.00 25.0 17.9 10.1 59 7.4 298
07/14/2022 0.24 0.00 29.7 18.9 7.8 61 7.3 345
07/15/2022 0.27 0.00 30.5 20.6 8.8 44 7.9 341
07/16/2022 0.27 0.00 31.0 22.2 12.6 37 7.8 342
07/17/2022 0.17 0.00 24.7 18.4 12.4 67 9.1 257
07/18/2022 0.05 0.50 18.5 14.3 11.8 85 4.1 91
07/19/2022 0.25 0.00 28.3 19.8 9.3 50 7.3 337
07/20/2022 0.22 0.00 25.3 17.3 7.0 64 8.6 334
07/21/2022 0.24 0.00 27.6 19.0 7.6 60 7.6 333
07/22/2022 0.16 0.00 22.4 16.5 11.6 67 9.4 239
07/23/2022 0.19 0.00 25.1 16.7 7.7 71 7.2 288
07/24/2022 0.21 0.00 28.2 18.9 8.4 64 6.2 296
07/25/2022 0.10 0.04 22.7 16.2 12.5 80 5.7 166
07/26/2022 0.14 0.00 25.0 17.6 10.8 73 4.2 224
07/27/2022 0.19 0.00 28.5 19.7 10.5 68 4.7 282
07/28/2022 0.24 0.00 30.3 21.3 10.4 62 8.1 311
07/29/2022 0.21 0.00 31.9 21.1 11.8 62 7.6 259
07/30/2022 0.18 0.30 30.2 19.0 10.4 67 4.9 264
07/31/2022 0.22 0.00 30.9 20.4 11.2 66 6.1 300
08/01/2022 0.22 0.00 32.2 21.7 14.3 66 9.8 282
08/02/2022 0.19 0.00 25.2 17.2 9.9 60 6.7 288
08/03/2022 0.10 0.00 27.9 16.9 9.3 64 3.5 128
08/04/2022 0.13 0.00 23.7 13.4 4.8 79 7.8 199
08/05/2022 0.15 0.00 18.4 10.9 2.1 67 8.4 250
08/06/2022 0.22 0.00 25.1 14.8 2.3 54 8.6 297
08/07/2022 0.23 0.00 30.0 19.1 6.2 45 7.6 294
08/08/2022 0.22 0.00 31.0 18.9 8.5 49 8.8 287
08/09/2022 0.23 0.00 26.6 19.5 12.8 46 12.0 269
08/10/2022 0.11 0.00 27.6 20.2 13.9 54 5.1 131
08/11/2022 0.24 0.00 31.9 21.8 12.3 52 8.9 262
08/12/2022 0.22 0.00 31.7 21.1 10.8 49 8.0 256
08/13/2022 0.23 0.00 31.0 21.1 8.4 45 7.9 260
08/14/2022 0.22 0.00 28.1 18.5 6.8 48 8.7 274
08/15/2022 0.18 0.00 28.1 18.8 9.6 54 7.1 238
08/16/2022 0.19 0.00 31.7 20.2 8.9 50 7.4 251
08/17/2022 0.19 0.00 28.4 19.4 9.4 58 6.2 263
08/18/2022 0.21 0.00 30.3 19.7 8.0 54 6.6 259
08/19/2022 0.22 0.00 31.8 20.9 9.8 48 8.3 230
08/20/2022 0.13 0.00 29.0 19.7 9.8 52 6.4 156
08/21/2022 0.14 0.00 27.8 18.1 11.7 69 7.5 189
08/22/2022 0.16 0.02 29.4 18.8 10.0 71 5.3 224
08/23/2022 0.05 0.34 18.4 15.4 12.9 86 4.6 85
08/24/2022 0.09 0.17 23.0 15.8 10.6 79 2.2 145
08/25/2022 0.12 0.02 23.4 16.1 9.3 77 4.1 177
08/26/2022 0.16 0.00 28.1 17.3 9.0 66 5.4 203
08/27/2022 0.09 0.13 21.5 13.2 9.2 77 8.1 114
08/28/2022 0.14 0.00 22.3 13.8 5.9 64 3.2 230
08/29/2022 0.12 0.00 27.9 15.9 4.5 56 4.3 174
08/30/2022 0.18 0.00 32.4 20.3 8.5 51 5.0 234
08/31/2022 0.18 0.00 33.2 21.8 11.0 45 6.1 231
09/01/2022 0.18 0.00 28.1 19.3 9.6 46 8.0 213
09/02/2022 0.20 0.00 30.6 17.5 4.5 56 6.8 236
09/03/2022 0.16 0.00 32.1 19.5 9.0 44 6.4 181
09/04/2022 0.19 0.00 32.6 21.4 9.5 39 6.5 207
09/05/2022 0.16 0.00 21.6 15.7 5.9 50 8.6 218
09/06/2022 0.16 0.00 22.6 12.6 1.8 61 9.3 221
09/07/2022 0.17 0.00 30.3 16.9 7.5 49 9.9 177
09/08/2022 0.10 0.02 16.5 10.8 5.5 67 6.8 165
09/09/2022 0.11 0.21 16.6 9.7 4.5 63 7.7 198
09/10/2022 0.13 0.00 26.5 12.5 0.0 54 4.8 206
09/11/2022 0.13 0.00 29.8 16.3 3.6 41 5.9 168
09/12/2022 0.11 0.00 18.4 14.5 10.6 50 10.4 105
09/13/2022 0.09 0.05 19.9 13.9 10.2 72 5.1 139
09/14/2022 0.11 0.00 20.8 13.2 5.5 66 6.2 173
09/15/2022 0.13 0.00 23.9 12.8 4.6 64 5.8 182
09/16/2022 0.10 0.00 22.9 12.3 4.2 57 5.5 145
09/17/2022 0.12 0.00 18.7 9.5 0.6 63 5.1 192
09/18/2022 0.09 0.00 19.0 8.9 -0.7 62 4.6 153
09/19/2022 0.03 0.14 10.5 6.8 4.3 83 11.7 55
09/20/2022 0.09 0.00 14.9 6.0 -2.3 64 5.3 192
09/21/2022 0.12 0.00 15.7 6.4 -4.2 67 10.7 196
09/22/2022 0.07 0.00 16.6 7.8 1.2 73 4.6 127
09/23/2022 0.12 0.00 20.9 11.2 2.2 52 7.9 135
09/24/2022 0.12 0.00 22.9 11.4 0.3 51 6.0 183
09/25/2022 0.10 0.00 24.2 10.9 0.1 50 4.9 166
09/26/2022 0.14 0.00 25.0 14.2 3.8 51 7.5 173
09/27/2022 0.12 0.00 28.4 15.4 4.0 48 5.3 168
09/28/2022 0.13 0.00 30.6 16.9 5.6 40 6.2 170
09/29/2022 0.09 0.01 21.4 15.3 10.3 58 13.7 88
09/30/2022 0.09 0.00 17.4 12.2 5.7 75 13.6 128
10/01/2022 0.10 0.00 21.4 12.0 3.6 73 5.7 159
10/02/2022 0.09 0.00 23.6 10.8 -0.3 66 4.0 160
10/03/2022 0.10 0.00 24.7 13.2 4.2 59 6.0 154
10/04/2022 0.11 0.00 24.6 13.6 4.7 55 7.4 152
10/05/2022 0.09 0.00 19.7 9.7 1.5 65 7.0 132
10/06/2022 0.07 0.00 15.7 6.8 -1.4 76 6.4 145
10/07/2022 0.09 0.00 22.0 9.7 0.4 63 5.6 145
10/08/2022 0.10 0.00 23.9 11.0 1.4 52 6.3 145
10/09/2022 0.09 0.00 22.2 10.5 1.4 55 6.2 141
10/10/2022 0.10 0.06 23.0 11.1 1.7 50 11.2 85
10/11/2022 0.09 0.00 15.6 6.9 -0.1 59 8.1 144
10/12/2022 0.07 0.00 14.8 4.6 -2.3 58 6.5 139
10/13/2022 0.08 0.00 22.7 7.4 -2.7 52 6.4 134
10/14/2022 0.10 0.00 21.9 11.1 3.3 44 11.7 94
10/15/2022 0.08 0.00 16.3 8.0 -1.2 65 6.7 131
10/16/2022 0.07 0.00 20.3 8.4 -1.1 61 3.6 129
10/17/2022 0.08 0.00 26.8 11.4 0.1 37 4.5 133
10/18/2022 0.10 0.00 25.4 10.8 -0.3 27 6.2 125
10/19/2022 0.08 0.00 25.3 10.9 0.0 29 5.2 123
10/20/2022 0.06 0.00 14.8 7.8 0.7 50 7.6 71
10/21/2022 0.01 0.12 4.0 1.3 -0.4 93 4.1 22
10/22/2022 0.01 0.00 0.0 -0.4 -0.7 99 5.3 59
10/23/2022 0.02 0.28 5.3 -1.5 -7.8 96 1.8 78
10/24/2022 0.03 0.11 6.0 -3.8 -14.2 84 2.1 96
10/25/2022 0.03 0.00 3.8 -1.8 -8.7 82 5.3 95
10/26/2022 0.04 0.00 9.5 -1.7 -9.5 72 0.7 120
10/27/2022 0.06 0.00 12.7 4.1 -2.3 52 11.4 103
10/28/2022 0.05 0.00 10.8 5.0 -0.7 56 8.9 95
10/29/2022 0.04 0.00 10.5 2.2 -5.6 59 6.7 89
10/30/2022 0.07 0.00 12.9 7.5 2.7 47 13.2 69
10/31/2022 0.02 0.00 5.8 1.4 -1.4 83 7.0 41
11/01/2022 0.01 0.00 1.2 -1.5 -3.9 92 1.5 29
11/02/2022 0.01 0.00 -3.7 -6.0 -11.1 89 0.0 47
11/03/2022 0.02 0.00 -2.0 -11.5 -19.8 81 0.0 102
11/04/2022 0.02 0.00 3.8 -4.8 -14.9 70 0.0 76
11/05/2022 0.01 0.00 5.2 -3.6 -10.3 85 0.0 55
11/06/2022 0.01 0.00 -10.1 -13.3 -15.9 81 0.0 58
11/07/2022 0.00 0.00 -15.6 -17.4 -20.2 84 0.0 46
11/08/2022 0.01 0.00 -12.8 -22.3 -28.0 74 0.0 97
11/09/2022 0.01 0.00 -13.3 -24.4 -30.7 76 0.0 97
11/10/2022 0.01 0.00 -8.9 -17.9 -27.4 79 0.0 95
11/11/2022 0.01 0.00 -3.1 -11.4 -16.1 80 0.0 87
11/12/2022 0.01 0.00 -0.1 -5.0 -14.5 82 0.0 60
11/13/2022 0.02 0.00 1.6 -5.7 -12.5 74 0.0 83
11/14/2022 0.02 0.00 4.1 -1.3 -9.4 71 0.0 75
11/15/2022 0.02 0.00 5.7 -2.0 -9.0 68 0.0 57
11/16/2022 0.01 0.00 0.9 -4.0 -8.3 74 0.0 42
11/17/2022 0.01 0.00 -8.2 -12.1 -16.6 56 0.0 84
11/18/2022 0.02 0.00 -1.0 -10.0 -15.3 48 0.0 81
11/19/2022 0.01 0.00 1.5 -8.4 -17.1 56 0.0 67
11/20/2022 0.02 0.00 2.9 -4.6 -12.6 56 0.0 46
11/21/2022 0.02 0.00 5.5 -2.4 -7.9 66 0.0 72
11/22/2022 0.01 0.00 6.9 3.6 -1.5 59 0.0 28
11/23/2022 0.02 0.00 6.7 0.4 -6.2 73 0.0 67
11/24/2022 0.01 0.00 8.1 2.1 -4.5 62 0.0 33
11/25/2022 0.02 0.00 8.8 3.6 -3.9 58 0.0 59
11/26/2022 0.01 0.00 6.6 -2.3 -8.6 71 0.0 66
11/27/2022 0.01 0.00 3.3 -3.3 -11.6 65 0.0 27
11/28/2022 0.01 0.00 -11.4 -13.4 -15.5 59 0.0 47
11/29/2022 0.01 0.00 -14.2 -17.9 -21.4 70 0.0 64
11/30/2022 0.00 0.00 -15.8 -18.5 -21.6 80 0.0 38
12/01/2022 0.01 0.00 -18.2 -23.0 -29.5 74 0.0 64
12/02/2022 0.00 0.00 -14.6 -23.3 -29.6 70 0.0 57
12/03/2022 0.01 0.00 -4.9 -16.2 -24.2 67 0.0 64
12/04/2022 0.01 0.00 2.2 -5.9 -13.4 64 0.0 60
12/05/2022 0.00 0.00 -7.5 -11.6 -18.3 85 0.0 23